createdAt,value
2023-02-17T00:01:17.942Z,32.3
2023-02-17T00:06:57.843Z,30.9
2023-02-17T00:12:19.741Z,27.3
2023-02-17T00:17:57.411Z,25.9
2023-02-17T00:23:19.756Z,28.5
2023-02-17T00:28:56.391Z,29.1
2023-02-17T00:34:34.233Z,25.8
2023-02-17T00:40:11.666Z,31.3
2023-02-17T00:45:47.856Z,32.9
2023-02-17T00:51:26.035Z,31.6
2023-02-17T00:57:03.957Z,29.6
2023-02-17T01:02:25.328Z,26.4
2023-02-17T01:08:02.351Z,25.6
2023-02-17T01:13:25.306Z,30.8
2023-02-17T01:19:01.979Z,32.4
2023-02-17T01:24:38.303Z,32.1
2023-02-17T01:30:16.730Z,30.8
2023-02-17T01:35:38.989Z,27.3
2023-02-17T01:41:16.512Z,25.9
2023-02-17T01:46:38.666Z,28.7
2023-02-17T01:51:59.927Z,31.6
2023-02-17T01:57:36.977Z,32.8
2023-02-17T02:03:15.533Z,31.6
2023-02-17T02:08:52.527Z,30.4
2023-02-17T02:14:29.649Z,26.4
2023-02-17T02:20:07.175Z,25.4
2023-02-17T02:25:43.439Z,30.4
2023-02-17T02:31:21.553Z,32.3
2023-02-17T02:36:59.372Z,32.3
2023-02-17T02:42:36.175Z,30.9
2023-02-17T02:47:58.316Z,27.5
2023-02-17T02:53:05.137Z,26
2023-02-17T02:58:25.851Z,27.6
2023-02-17T03:04:02.968Z,30.3
2023-02-17T03:09:40.257Z,21.8
2023-02-17T03:15:16.643Z,30
2023-02-17T03:20:53.803Z,32.3
2023-02-17T03:26:31.661Z,32.4
2023-02-17T03:32:09.302Z,30.9
2023-02-17T03:37:31.363Z,27.3
2023-02-17T03:43:08.859Z,25.9
2023-02-17T03:48:45.102Z,29
2023-02-17T03:54:06.673Z,31.8
2023-02-17T03:59:44.774Z,33
2023-02-17T04:05:21.463Z,31.5
2023-02-17T04:10:59.456Z,28.9
2023-02-17T04:16:37.542Z,26.3
2023-02-17T04:22:13.465Z,26.8
2023-02-17T04:27:35.368Z,31.1
2023-02-17T04:33:01.382Z,32.6
2023-02-17T04:38:41.557Z,31.9
2023-02-17T04:44:19.437Z,30.7
2023-02-17T04:49:57.525Z,26.8
2023-02-17T04:55:33.456Z,25.8
2023-02-17T05:00:55.573Z,30.2
2023-02-17T05:06:33.662Z,32.1
2023-02-17T05:12:10.891Z,33.1
2023-02-17T05:17:49.697Z,31.3
2023-02-17T05:23:27.121Z,28.1
2023-02-17T05:29:04.560Z,26.1
2023-02-17T05:34:27.386Z,27.6
2023-02-17T05:40:05.141Z,30.4
2023-02-17T05:45:42.676Z,21.4
2023-02-17T05:51:20.302Z,30.1
2023-02-17T05:56:58.125Z,32.5
2023-02-17T06:02:35.814Z,32.4
2023-02-17T06:08:13.418Z,30.9
2023-02-17T06:13:35.355Z,27.1
2023-02-17T06:19:14.520Z,25.9
2023-02-17T06:24:51.975Z,29.2
2023-02-17T06:30:15.832Z,32.1
2023-02-17T06:35:52.283Z,33.3
2023-02-17T06:41:29.895Z,31.3
2023-02-17T06:47:07.680Z,28.6
2023-02-17T06:52:45.009Z,26.1
2023-02-17T06:58:21.763Z,27
2023-02-17T07:04:01.153Z,31.5
2023-02-17T07:09:38.210Z,33.2
2023-02-17T07:15:00.044Z,31.7
2023-02-17T07:20:23.061Z,30
2023-02-17T07:26:00.548Z,26.4
2023-02-17T07:31:23.266Z,25.4
2023-02-17T07:36:45.310Z,31.3
2023-02-17T07:42:24.421Z,33.3
2023-02-17T07:48:03.360Z,31.8
2023-02-17T07:53:40.448Z,30.4
2023-02-17T07:59:18.195Z,26.3
2023-02-17T08:04:55.483Z,25.3
2023-02-17T08:10:33.242Z,31.6
2023-02-17T08:16:12.089Z,33.8
2023-02-17T08:21:49.387Z,31.4
2023-02-17T08:27:27.250Z,29.8
2023-02-17T08:33:05.341Z,33.3
2023-02-17T08:38:42.551Z,32.1
2023-02-17T08:44:04.009Z,30.8
2023-02-17T08:49:43.010Z,29.4
2023-02-17T08:55:24.038Z,33.4
2023-02-17T09:00:55.994Z,32.2
2023-02-17T09:06:18.417Z,30.8
2023-02-17T09:11:42.703Z,28.7
2023-02-17T09:17:20.726Z,33.3
2023-02-17T09:23:21.002Z,32.4
2023-02-17T09:28:42.860Z,30.8
2023-02-17T09:34:06.772Z,30.4
2023-02-17T09:39:30.271Z,33.9
2023-02-17T09:45:08.079Z,31.9
2023-02-17T09:50:39.556Z,30.6
2023-02-17T09:56:19.157Z,31.6
2023-02-17T10:01:42.293Z,32.9
2023-02-17T10:07:23.280Z,31.3
2023-02-17T10:12:45.708Z,30.1
2023-02-17T10:18:09.289Z,28.9
2023-02-17T10:23:47.146Z,27.9
2023-02-17T10:29:24.934Z,32.2
2023-02-17T10:35:06.564Z,31.9
2023-02-17T10:40:28.764Z,30.6
2023-02-17T10:45:38.969Z,29.5
2023-02-17T10:51:04.502Z,28.4
2023-02-17T10:56:41.125Z,28
2023-02-17T11:02:03.620Z,32.7
2023-02-17T11:07:09.715Z,31.8
2023-02-17T11:12:31.138Z,30.6
2023-02-17T11:18:11.950Z,29.5
2023-02-17T11:23:52.602Z,28.3
2023-02-17T11:29:14.756Z,29.4
2023-02-17T11:34:53.019Z,32.8
2023-02-17T11:40:31.506Z,31.8
2023-02-17T11:45:52.415Z,30.5
2023-02-17T11:51:29.962Z,29.3
2023-02-17T11:57:07.186Z,28.2
2023-02-17T12:02:44.451Z,30.6
2023-02-17T12:08:22.331Z,32.6
2023-02-17T12:13:43.946Z,31.3
2023-02-17T12:24:11.680Z,29
2023-02-17T12:29:51.305Z,27.9
2023-02-17T12:35:14.350Z,29.6
2023-02-17T12:40:35.925Z,32.9
2023-02-17T12:45:58.203Z,31.4
2023-02-17T12:51:22.014Z,30.3
2023-02-17T12:56:44.893Z,29.1
2023-02-17T13:02:07.344Z,28.1
2023-02-17T13:07:29.648Z,30.3
2023-02-17T13:12:50.945Z,32.8
2023-02-17T13:17:57.589Z,31.3
2023-02-17T13:23:19.610Z,30.3
2023-02-17T13:28:40.972Z,29.2
2023-02-17T13:34:03.272Z,28.1
2023-02-17T13:39:26.171Z,27.1
2023-02-17T13:44:49.673Z,32.1
2023-02-17T13:50:12.377Z,31.9
2023-02-17T13:55:51.581Z,30.4
2023-02-17T14:01:12.560Z,29.3
2023-02-17T14:06:45.045Z,31.9
2023-02-17T14:12:07.689Z,32.1
2023-02-17T14:17:31.510Z,30.8
2023-02-17T14:23:20.187Z,29.4
2023-02-17T14:28:57.089Z,28
2023-02-17T14:34:34.339Z,26.9
2023-02-17T14:40:11.553Z,25.9
2023-02-17T14:45:49.810Z,24.9
2023-02-17T14:51:28.556Z,24.1
2023-02-17T14:56:50.519Z,23.4
2023-02-17T15:02:27.600Z,22.9
2023-02-17T15:08:09.760Z,22.5
2023-02-17T15:13:46.537Z,22.1
2023-02-17T15:19:24.107Z,21.9
2023-02-17T15:25:06.214Z,21.7
2023-02-17T15:30:45.111Z,21.5
2023-02-17T15:36:24.252Z,21.3
2023-02-17T15:47:28.298Z,21
2023-02-17T15:52:51.623Z,20.9
2023-02-17T15:58:29.212Z,20.8
2023-02-17T16:04:07.606Z,20.6
2023-02-17T16:09:45.485Z,20.6
2023-02-17T16:15:22.772Z,20.4
2023-02-17T16:21:00.163Z,20.4
2023-02-17T16:26:23.527Z,20.3
2023-02-17T16:32:02.138Z,20.2
2023-02-17T16:37:09.299Z,20.1
2023-02-17T16:42:49.134Z,20.1
2023-02-17T16:48:27.145Z,20
2023-02-17T16:54:07.404Z,20.3
2023-02-17T16:59:45.936Z,30
2023-02-17T17:05:24.296Z,32.8
2023-02-17T17:11:22.159Z,31.6
2023-02-17T17:16:44.130Z,29.3
2023-02-17T17:22:21.207Z,32.4
2023-02-17T17:27:58.669Z,31.4
2023-02-17T17:33:21.744Z,30.3
2023-02-17T17:38:46.521Z,29.3
2023-02-17T17:44:10.336Z,28.3
2023-02-17T17:49:12.572Z,29.3
2023-02-17T17:54:52.376Z,32.1
2023-02-17T18:00:29.874Z,31.4
2023-02-17T18:06:10.676Z,30.1
2023-02-17T18:11:45.150Z,31.2
2023-02-17T18:17:23.114Z,31.9
2023-02-17T18:23:00.496Z,30.4
2023-02-17T18:28:41.664Z,29.3
2023-02-17T18:34:20.464Z,30.9
2023-02-17T18:39:58.700Z,31.9
2023-02-17T18:45:35.502Z,30.3
2023-02-17T18:50:57.343Z,29.1
2023-02-17T18:56:19.153Z,31.2
2023-02-17T19:01:56.220Z,31.3
2023-02-17T19:07:33.453Z,29.9
2023-02-17T19:13:09.893Z,28.9
2023-02-17T19:18:46.836Z,29.4
2023-02-17T19:24:23.966Z,32.3
2023-02-17T19:30:01.543Z,30.6
2023-02-17T19:35:39.211Z,29.4
2023-02-17T19:41:16.215Z,28.2
2023-02-17T19:46:41.505Z,31.8
2023-02-17T19:52:17.891Z,31.2
2023-02-17T19:57:55.642Z,30.1
2023-02-17T20:03:17.321Z,29
2023-02-17T20:08:54.750Z,28
2023-02-17T20:14:35.884Z,26.6
2023-02-17T20:20:12.375Z,30.9
2023-02-17T20:25:50.525Z,31.4
2023-02-17T20:31:12.311Z,30.3
2023-02-17T20:36:50.771Z,29.3
2023-02-17T20:42:28.607Z,28.3
2023-02-17T20:47:51.601Z,26.4
2023-02-17T20:53:29.608Z,30.7
2023-02-17T20:59:07.405Z,31.7
2023-02-17T21:04:45.848Z,30.6
2023-02-17T21:10:22.745Z,26.9
2023-02-17T21:16:00.165Z,25.6
2023-02-17T21:21:37.255Z,29.9
2023-02-17T21:27:14.664Z,25.3
2023-02-17T21:32:52.551Z,31.3
2023-02-17T21:38:29.338Z,33.1
2023-02-17T21:43:52.999Z,32.1
2023-02-17T21:49:15.648Z,30.8
2023-02-17T21:54:37.259Z,26.7
2023-02-17T22:00:15.472Z,25.6
2023-02-17T22:05:36.207Z,24.2
2023-02-17T22:16:33.246Z,31.5
2023-02-17T22:22:10.195Z,33.1
2023-02-17T22:27:47.512Z,32.1
2023-02-17T22:33:26.034Z,30.7
2023-02-17T22:39:02.358Z,30.9
2023-02-17T22:44:38.798Z,32.6
2023-02-17T22:50:16.281Z,32.2
2023-02-17T22:55:54.145Z,30.8
2023-02-17T23:01:15.737Z,26.8
2023-02-17T23:06:56.405Z,25.6
2023-02-17T23:12:18.444Z,24.3
2023-02-17T23:17:55.962Z,26.3
2023-02-17T23:23:33.234Z,31.1
2023-02-17T23:29:11.124Z,32.6
2023-02-17T23:34:48.313Z,32.3
2023-02-17T23:40:09.909Z,30.9
2023-02-17T23:45:48.321Z,27
2023-02-17T23:51:26.345Z,25.7
2023-02-17T23:57:03.872Z,29.3
